Time;durP1;ratioP1;P1;durP2;ratioP2;P2;SDS_P1;SDS_P2;PMS_P1;PMS_P2;Temp;Humidity;BMP_temperature;BMP_pressure;BME280_temperature;BME280_humidity;BME280_pressure;Samples;Min_cycle;Max_cycle;Signal;HPM_P1;HPM_P2
2020/12/23 00:00:00;;;;;;;10.45;8.70;;;9.40;99.90;;;;;;5077046;28;20385;-88
2020/12/23 00:02:27;;;;;;;13.60;9.57;;;9.50;99.90;;;;;;5077803;28;20382;-88
2020/12/23 00:04:54;;;;;;;14.93;10.38;;;9.60;99.90;;;;;;5076930;28;20373;-89
2020/12/23 00:07:21;;;;;;;11.70;9.20;;;9.60;99.90;;;;;;5075263;28;20366;-88
2020/12/23 00:09:48;;;;;;;11.15;8.38;;;9.60;99.90;;;;;;5076007;28;20395;-88
2020/12/23 00:12:15;;;;;;;15.82;10.02;;;9.60;99.90;;;;;;5076098;28;20080;-89
2020/12/23 00:14:42;;;;;;;14.90;9.15;;;9.60;99.90;;;;;;5075834;28;20393;-89
2020/12/23 00:17:10;;;;;;;13.85;9.40;;;9.60;99.90;;;;;;5076921;28;20373;-88
2020/12/23 00:19:37;;;;;;;7.55;6.80;;;9.60;99.90;;;;;;5076209;28;20377;-89
2020/12/23 00:22:04;;;;;;;9.60;6.45;;;9.60;99.90;;;;;;5075931;28;20477;-88
2020/12/23 00:24:31;;;;;;;8.63;6.40;;;9.60;99.90;;;;;;5076503;28;20397;-88
2020/12/23 00:26:58;;;;;;;7.32;5.97;;;9.50;99.90;;;;;;5075659;28;20385;-86
2020/12/23 00:29:25;;;;;;;9.02;7.35;;;9.50;99.90;;;;;;5076159;28;20454;-88
2020/12/23 00:31:53;;;;;;;7.45;6.53;;;9.50;99.90;;;;;;5076587;28;20552;-88
2020/12/23 00:34:20;;;;;;;9.75;7.32;;;9.40;99.90;;;;;;5075689;28;20393;-89
2020/12/23 00:36:58;;;;;;;15.00;7.85;;;9.40;99.90;;;;;;5076566;28;20484;-90
2020/12/23 00:39:26;;;;;;;13.20;8.48;;;9.40;99.90;;;;;;5075479;28;20051;-88
2020/12/23 00:41:54;;;;;;;10.85;7.68;;;9.40;99.90;;;;;;5075378;28;20469;-88
2020/12/23 00:44:21;;;;;;;19.25;12.18;;;9.50;99.90;;;;;;5075335;28;20465;-88
2020/12/23 00:46:48;;;;;;;23.65;12.18;;;9.50;99.90;;;;;;5076805;28;20370;-89
2020/12/23 00:49:15;;;;;;;16.33;9.80;;;9.50;99.90;;;;;;5075767;28;20400;-88
2020/12/23 00:51:42;;;;;;;13.48;9.77;;;9.50;99.90;;;;;;5075075;28;20384;-88
2020/12/23 00:54:09;;;;;;;27.58;11.70;;;9.50;99.90;;;;;;5076134;28;20472;-88
2020/12/23 00:56:36;;;;;;;16.25;9.15;;;9.50;99.90;;;;;;5075737;28;20365;-88
2020/12/23 00:59:03;;;;;;;12.27;8.32;;;9.40;99.90;;;;;;5074994;28;20392;-88
2020/12/23 01:01:33;;;;;;;17.45;11.07;;;9.40;99.90;;;;;;5075046;28;20049;-88
2020/12/23 01:03:59;;;;;;;18.05;12.15;;;9.50;99.90;;;;;;5075324;28;20380;-88
2020/12/23 01:06:27;;;;;;;15.30;10.90;;;9.50;99.90;;;;;;5087697;28;20058;-87
2020/12/23 01:08:54;;;;;;;22.23;12.70;;;9.50;99.90;;;;;;5077960;28;20431;-89
2020/12/23 01:11:21;;;;;;;27.83;12.68;;;9.50;99.90;;;;;;5075259;28;20378;-89
2020/12/23 01:13:48;;;;;;;21.38;10.77;;;9.50;99.90;;;;;;5074923;28;20500;-89
2020/12/23 01:16:20;;;;;;;15.15;9.40;;;9.50;99.90;;;;;;5075058;28;20373;-88
2020/12/23 01:18:48;;;;;;;16.85;10.43;;;9.50;99.90;;;;;;5074683;28;20400;-88
2020/12/23 01:21:15;;;;;;;7.60;6.25;;;9.50;99.90;;;;;;5074633;28;20385;-88
2020/12/23 01:23:43;;;;;;;8.35;6.43;;;9.60;99.90;;;;;;5074542;28;20366;-88
2020/12/23 01:26:10;;;;;;;8.02;5.13;;;9.60;99.90;;;;;;5075490;28;20473;-88
2020/12/23 01:28:38;;;;;;;6.35;5.05;;;9.60;99.90;;;;;;5074003;28;20508;-88
2020/12/23 01:31:05;;;;;;;5.10;4.60;;;9.60;99.90;;;;;;5074490;28;20465;-87
2020/12/23 01:33:33;;;;;;;5.22;3.40;;;9.60;99.90;;;;;;5076003;28;20377;-88
2020/12/23 01:36:01;;;;;;;3.33;3.03;;;9.60;99.90;;;;;;5075615;28;20461;-88
2020/12/23 01:38:28;;;;;;;9.75;4.43;;;9.60;99.90;;;;;;5074717;28;20362;-88
2020/12/23 01:41:00;;;;;;;5.72;3.45;;;9.50;99.90;;;;;;5074111;28;20393;-88
2020/12/23 01:43:27;;;;;;;4.57;2.80;;;9.50;99.90;;;;;;5074168;28;20388;-87
2020/12/23 01:45:55;;;;;;;3.30;3.03;;;9.60;99.90;;;;;;5074141;28;20045;-88
2020/12/23 01:48:28;;;;;;;5.40;3.22;;;9.60;99.90;;;;;;5074924;28;20384;-88
2020/12/23 01:50:58;;;;;;;;;;;9.60;99.90;;;;;;5075693;28;20377;-87
2020/12/23 01:53:28;;;;;;;11.80;6.32;;;9.50;99.90;;;;;;5073573;28;20280;-87
2020/12/23 01:55:56;;;;;;;6.80;5.93;;;9.50;99.90;;;;;;5073829;28;20040;-87
2020/12/23 01:58:24;;;;;;;9.43;6.93;;;9.60;99.90;;;;;;5074190;28;20381;-87
2020/12/23 02:00:51;;;;;;;8.75;5.85;;;9.60;99.90;;;;;;5074361;28;20381;-87
2020/12/23 02:03:21;;;;;;;8.50;6.43;;;9.60;99.90;;;;;;5074557;28;20397;-87
2020/12/23 02:05:49;;;;;;;12.27;7.20;;;9.60;99.90;;;;;;5074566;28;20365;-87
2020/12/23 02:08:16;;;;;;;10.57;6.32;;;9.60;99.90;;;;;;5073853;28;20377;-85
2020/12/23 02:10:44;;;;;;;9.65;6.40;;;9.60;99.90;;;;;;5073448;28;20400;-87
2020/12/23 02:13:11;;;;;;;7.07;5.00;;;9.60;99.90;;;;;;5073389;28;20392;-87
2020/12/23 02:15:38;;;;;;;6.45;5.32;;;9.60;99.90;;;;;;5073964;28;20078;-86
2020/12/23 02:18:06;;;;;;;5.68;5.07;;;9.50;99.90;;;;;;5073275;28;20366;-86
2020/12/23 02:20:33;;;;;;;7.43;5.47;;;9.50;99.90;;;;;;5073405;28;20419;-86
2020/12/23 02:23:00;;;;;;;8.82;6.07;;;9.50;99.90;;;;;;5073972;28;20385;-87
2020/12/23 02:25:27;;;;;;;6.85;5.88;;;9.50;99.90;;;;;;5073328;28;20374;-87
2020/12/23 02:27:54;;;;;;;7.30;5.75;;;9.50;99.90;;;;;;5072898;28;20491;-87
2020/12/23 02:30:21;;;;;;;10.40;6.68;;;9.50;99.90;;;;;;5072988;28;20385;-87
2020/12/23 02:32:48;;;;;;;7.60;6.13;;;9.50;99.90;;;;;;5073423;28;20042;-87
2020/12/23 02:35:16;;;;;;;8.38;6.40;;;9.50;99.90;;;;;;5073408;28;20446;-87
2020/12/23 02:37:43;;;;;;;7.93;7.05;;;9.50;99.90;;;;;;5073497;28;20389;-87
2020/12/23 02:40:10;;;;;;;14.02;7.85;;;9.50;99.90;;;;;;5073330;28;20488;-87
2020/12/23 02:42:40;;;;;;;14.68;8.07;;;9.40;99.90;;;;;;5073393;28;20454;-87
2020/12/23 02:45:07;;;;;;;12.15;7.28;;;9.40;99.90;;;;;;5073684;28;20400;-87
2020/12/23 02:47:34;;;;;;;10.27;6.70;;;9.50;99.90;;;;;;5073235;28;20515;-86
2020/12/23 02:50:01;;;;;;;11.50;6.65;;;9.50;99.90;;;;;;5073339;28;20044;-86
2020/12/23 02:52:28;;;;;;;20.63;9.77;;;9.50;99.90;;;;;;5074570;28;20358;-87
2020/12/23 02:54:55;;;;;;;16.13;8.52;;;9.40;99.90;;;;;;5073324;28;20468;-87
2020/12/23 02:57:22;;;;;;;13.27;7.53;;;9.50;99.90;;;;;;5073143;28;20407;-87
2020/12/23 02:59:49;;;;;;;10.27;6.15;;;9.50;99.90;;;;;;5074193;28;20495;-88
2020/12/23 03:02:16;;;;;;;10.35;6.40;;;9.50;99.90;;;;;;5072969;28;20389;-87
2020/12/23 03:04:58;;;;;;;9.27;5.93;;;9.50;99.90;;;;;;5072675;28;20444;-87
2020/12/23 03:07:26;;;;;;;3.55;3.25;;;9.50;99.90;;;;;;5073117;28;20469;-86
2020/12/23 03:09:53;;;;;;;3.17;2.80;;;9.50;99.90;;;;;;5072842;28;20404;-87
2020/12/23 03:12:20;;;;;;;2.90;2.70;;;9.50;99.90;;;;;;5073032;28;20427;-88
2020/12/23 03:14:47;;;;;;;2.33;2.03;;;9.40;99.90;;;;;;5072899;28;20396;-87
2020/12/23 03:17:14;;;;;;;2.60;2.40;;;9.40;99.90;;;;;;5072879;28;20397;-87
2020/12/23 03:19:42;;;;;;;1.95;1.85;;;9.40;99.90;;;;;;5076094;28;20354;-88
2020/12/23 03:22:09;;;;;;;1.83;1.70;;;9.40;99.90;;;;;;5088279;28;20465;-87
2020/12/23 03:24:36;;;;;;;3.22;1.92;;;9.40;99.90;;;;;;5073293;28;20457;-87
2020/12/23 03:27:03;;;;;;;4.40;2.90;;;9.40;99.90;;;;;;5072716;28;20036;-87
2020/12/23 03:29:30;;;;;;;2.33;2.13;;;9.50;99.90;;;;;;5072955;28;20497;-87
2020/12/23 03:31:57;;;;;;;2.20;2.00;;;9.50;99.90;;;;;;5072880;28;20408;-87
2020/12/23 03:34:24;;;;;;;5.03;3.42;;;9.50;99.90;;;;;;5072812;28;20610;-87
2020/12/23 03:36:51;;;;;;;4.07;3.00;;;9.50;99.90;;;;;;5073882;28;20465;-87
2020/12/23 03:39:19;;;;;;;3.72;3.42;;;9.50;99.90;;;;;;5073581;28;20048;-87
2020/12/23 03:41:46;;;;;;;3.70;3.40;;;9.50;99.90;;;;;;5073947;28;20465;-87
2020/12/23 03:44:13;;;;;;;3.70;3.40;;;9.40;99.90;;;;;;5077138;28;20370;-87
2020/12/23 03:46:40;;;;;;;3.60;3.30;;;9.50;99.90;;;;;;5076383;28;20489;-88
2020/12/23 03:49:07;;;;;;;2.63;2.35;;;9.50;99.90;;;;;;5077130;28;20384;-87
2020/12/23 03:51:34;;;;;;;3.20;3.00;;;9.50;99.90;;;;;;5076100;28;20488;-87
2020/12/23 03:54:00;;;;;;;3.17;2.83;;;9.40;99.90;;;;;;5076830;28;20393;-87
2020/12/23 03:56:28;;;;;;;2.92;2.08;;;9.40;99.90;;;;;;5076128;28;20465;-87
2020/12/23 03:58:54;;;;;;;3.33;2.25;;;9.40;99.90;;;;;;5076062;28;20048;-88
2020/12/23 04:01:21;;;;;;;2.13;1.75;;;9.40;99.90;;;;;;5076986;28;20066;-87
2020/12/23 04:03:50;;;;;;;1.80;1.70;;;9.40;99.90;;;;;;5076905;28;20049;-87
2020/12/23 04:06:17;;;;;;;1.55;1.27;;;9.30;99.90;;;;;;5075715;28;20395;-87
2020/12/23 04:08:44;;;;;;;1.73;1.38;;;9.30;99.90;;;;;;5076033;28;20443;-87
2020/12/23 04:11:11;;;;;;;1.08;0.80;;;9.30;99.90;;;;;;5076621;28;20401;-86
2020/12/23 04:13:39;;;;;;;3.15;1.73;;;9.30;99.90;;;;;;5075715;28;20520;-87
2020/12/23 04:16:07;;;;;;;2.47;2.28;;;9.20;99.90;;;;;;5075337;28;20495;-87
2020/12/23 04:18:34;;;;;;;4.30;2.40;;;9.10;99.90;;;;;;5075726;28;20477;-87
2020/12/23 04:21:01;;;;;;;2.53;1.70;;;9.10;99.90;;;;;;5076624;28;20488;-87
2020/12/23 04:23:28;;;;;;;2.70;2.00;;;9.10;99.90;;;;;;5075726;28;20492;-88
2020/12/23 04:25:55;;;;;;;3.10;2.58;;;9.10;99.90;;;;;;5075093;28;20122;-87
2020/12/23 04:28:22;;;;;;;2.20;1.55;;;9.10;99.90;;;;;;5076013;28;20401;-87
2020/12/23 04:30:49;;;;;;;2.33;1.70;;;9.20;99.90;;;;;;5075399;28;20051;-87
2020/12/23 04:33:16;;;;;;;2.88;2.20;;;9.20;99.90;;;;;;5075134;28;20394;-87
2020/12/23 04:35:59;;;;;;;4.18;1.90;;;9.20;99.90;;;;;;5076401;28;20447;-87
2020/12/23 04:38:26;;;;;;;2.75;2.20;;;9.10;99.90;;;;;;5075237;28;20040;-87
2020/12/23 04:40:53;;;;;;;1.95;1.60;;;9.20;99.90;;;;;;5076297;28;20449;-87
2020/12/23 04:43:20;;;;;;;1.55;1.45;;;9.20;99.90;;;;;;5076117;28;20397;-87
2020/12/23 04:45:48;;;;;;;4.38;1.90;;;9.20;99.90;;;;;;5076208;28;20365;-88
2020/12/23 04:48:23;;;;;;;2.55;1.75;;;9.20;99.90;;;;;;5075067;28;20496;-88
2020/12/23 04:50:54;;;;;;;4.82;1.90;;;9.10;99.90;;;;;;5075218;28;20388;-87
2020/12/23 04:53:21;;;;;;;4.03;2.10;;;9.10;99.90;;;;;;5075798;28;20465;-87
2020/12/23 04:55:49;;;;;;;2.28;2.17;;;9.10;99.90;;;;;;5075020;28;20043;-88
2020/12/23 04:58:16;;;;;;;3.35;2.50;;;9.10;99.90;;;;;;5075945;28;20047;-87
2020/12/23 05:00:43;;;;;;;7.22;4.10;;;9.10;99.90;;;;;;5076408;28;20484;-87
2020/12/23 05:03:10;;;;;;;10.18;4.30;;;9.10;99.90;;;;;;5074644;28;20393;-88
2020/12/23 05:05:37;;;;;;;129.32;11.98;;;9.10;99.90;;;;;;5074571;28;20388;-87
2020/12/23 05:08:04;;;;;;;17.27;7.55;;;9.00;99.90;;;;;;5074240;28;20049;-87
2020/12/23 05:10:31;;;;;;;21.80;9.23;;;9.00;99.90;;;;;;5074486;28;20457;-87
2020/12/23 05:12:59;;;;;;;24.75;10.00;;;9.00;99.90;;;;;;5074122;28;20388;-87
2020/12/23 05:15:27;;;;;;;18.85;9.15;;;9.00;99.90;;;;;;5075293;28;20365;-87
2020/12/23 05:17:54;;;;;;;19.08;8.80;;;9.00;99.90;;;;;;5074760;28;20366;-87
2020/12/23 05:20:21;;;;;;;31.30;9.88;;;9.00;99.90;;;;;;5074835;28;20366;-87
2020/12/23 05:22:51;;;;;;;19.52;8.68;;;9.00;99.90;;;;;;5073775;28;20041;-87
2020/12/23 05:25:19;;;;;;;18.65;7.80;;;9.00;99.90;;;;;;5074789;28;20472;-87
2020/12/23 05:27:50;;;;;;;18.35;7.95;;;8.90;99.90;;;;;;5074756;28;20382;-87
2020/12/23 05:30:20;;;;;;;25.92;9.27;;;8.90;99.90;;;;;;5073973;28;20461;-88
2020/12/23 05:32:48;;;;;;;24.90;9.82;;;8.90;99.90;;;;;;5073945;28;20496;-87
2020/12/23 05:35:16;;;;;;;29.42;11.15;;;8.80;99.90;;;;;;5088513;28;20040;-86
2020/12/23 05:37:43;;;;;;;28.33;10.80;;;8.80;99.90;;;;;;5077139;28;20405;-87
2020/12/23 05:40:11;;;;;;;26.30;10.77;;;8.80;99.90;;;;;;5074999;28;20377;-87
2020/12/23 05:42:39;;;;;;;46.30;11.63;;;8.80;99.90;;;;;;5074699;28;20395;-87
2020/12/23 05:45:08;;;;;;;40.40;11.88;;;8.80;99.90;;;;;;5073874;28;20479;-87
2020/12/23 05:47:36;;;;;;;28.00;11.45;;;8.80;99.90;;;;;;5073607;28;20056;-87
2020/12/23 05:50:11;;;;;;;27.35;10.48;;;8.70;99.90;;;;;;5074731;28;20392;-87
2020/12/23 05:52:38;;;;;;;25.50;9.73;;;8.70;99.90;;;;;;5074152;28;20381;-87
2020/12/23 05:55:17;;;;;;;24.77;9.90;;;8.70;99.90;;;;;;5073744;28;20473;-87
2020/12/23 05:57:45;;;;;;;22.65;9.57;;;8.70;99.90;;;;;;5075009;28;20123;-87
2020/12/23 06:00:12;;;;;;;19.92;8.18;;;8.70;99.90;;;;;;5073285;28;20424;-87
2020/12/23 06:03:29;;;;;;;18.77;7.88;;;8.70;99.90;;;;;;5073903;28;20382;-87
2020/12/23 06:06:03;;;;;;;12.93;6.32;;;8.70;99.90;;;;;;5015878;28;20049;-87
2020/12/23 06:08:40;;;;;;;24.17;7.63;;;8.70;99.90;;;;;;5071814;28;20561;-87
2020/12/23 06:11:12;;;;;;;14.05;6.07;;;8.70;99.90;;;;;;5073476;28;20106;-87
2020/12/23 06:14:05;;;;;;;11.65;5.60;;;8.70;99.90;;;;;;5073714;28;20469;-87
2020/12/23 06:16:40;;;;;;;5.95;3.72;;;8.70;99.90;;;;;;5074567;28;20047;-87
2020/12/23 06:19:36;;;;;;;10.18;4.50;;;8.70;99.90;;;;;;5074747;28;20389;-87
2020/12/23 06:22:07;;;;;;;5.38;4.30;;;8.70;99.90;;;;;;5074332;28;20116;-88
2020/12/23 06:24:35;;;;;;;20.25;5.32;;;8.70;99.90;;;;;;5074556;28;20075;-86
2020/12/23 06:27:05;;;;;;;7.47;3.88;;;8.60;99.90;;;;;;5074622;28;20094;-87
2020/12/23 06:29:37;;;;;;;9.32;4.65;;;8.60;99.90;;;;;;5073336;28;20079;-87
2020/12/23 06:32:07;;;;;;;4.45;3.53;;;8.50;99.90;;;;;;5073188;28;20401;-87
2020/12/23 06:34:37;;;;;;;14.18;8.30;;;8.50;99.90;;;;;;5073276;28;20511;-87
2020/12/23 06:37:20;;;;;;;39.47;25.60;;;8.60;99.90;;;;;;5073348;28;20491;-87
2020/12/23 06:39:48;;;;;;;29.42;13.80;;;8.50;99.90;;;;;;5074363;28;20041;-87
2020/12/23 06:42:18;;;;;;;46.28;12.57;;;8.50;99.90;;;;;;5074535;28;20372;-87
2020/12/23 06:44:45;;;;;;;26.40;8.32;;;8.50;99.90;;;;;;5073047;28;20086;-87
2020/12/23 06:47:20;;;;;;;16.92;7.97;;;8.40;99.90;;;;;;5074184;28;20492;-87
2020/12/23 06:49:47;;;;;;;12.20;8.07;;;8.50;99.90;;;;;;5073900;28;20393;-87
2020/12/23 06:52:27;;;;;;;11.98;5.40;;;8.50;99.90;;;;;;5073274;28;20051;-87
2020/12/23 06:55:07;;;;;;;14.70;7.50;;;8.50;99.90;;;;;;5073040;28;20424;-87
2020/12/23 06:57:37;;;;;;;16.17;9.55;;;8.50;99.90;;;;;;5072831;28;20404;-87
2020/12/23 07:00:07;;;;;;;7.80;5.38;;;8.50;99.90;;;;;;5074093;28;20429;-87
2020/12/23 07:02:48;;;;;;;13.75;6.35;;;8.60;99.90;;;;;;5074052;28;20044;-87
2020/12/23 07:05:21;;;;;;;23.50;9.70;;;8.60;99.90;;;;;;5072907;28;20408;-87
2020/12/23 07:07:58;;;;;;;17.70;9.02;;;8.40;99.90;;;;;;5073093;28;20090;-87
2020/12/23 07:10:34;;;;;;;21.08;8.70;;;8.40;99.90;;;;;;5072733;28;20392;-87
2020/12/23 07:13:11;;;;;;;19.85;7.60;;;8.40;99.90;;;;;;5073820;28;20388;-87
2020/12/23 07:15:41;;;;;;;15.35;7.57;;;8.40;99.90;;;;;;5073947;28;20485;-87
2020/12/23 07:18:13;;;;;;;12.63;6.10;;;8.40;99.90;;;;;;5076357;28;20396;-87
2020/12/23 07:20:41;;;;;;;13.48;7.07;;;8.50;99.90;;;;;;5076624;28;20356;-87
2020/12/23 07:23:10;;;;;;;10.27;7.65;;;8.50;99.90;;;;;;5077091;28;20385;-87
2020/12/23 07:25:45;;;;;;;12.88;8.23;;;8.60;99.90;;;;;;5076514;28;20354;-87
2020/12/23 07:28:14;;;;;;;18.75;10.85;;;8.60;99.90;;;;;;5075861;28;20055;-87
2020/12/23 07:30:41;;;;;;;15.48;8.98;;;8.50;99.90;;;;;;5077596;28;20049;-87
2020/12/23 07:33:17;;;;;;;11.18;8.90;;;8.50;99.90;;;;;;5077371;28;20071;-87
2020/12/23 07:35:47;;;;;;;15.90;9.40;;;8.60;99.90;;;;;;5076591;28;20422;-87
2020/12/23 07:38:15;;;;;;;14.05;9.30;;;8.60;99.90;;;;;;5076801;28;20311;-88
2020/12/23 07:40:42;;;;;;;9.13;7.95;;;8.50;99.90;;;;;;5077503;28;20392;-86
2020/12/23 07:43:12;;;;;;;10.65;8.27;;;8.50;99.90;;;;;;5077043;28;20361;-87
2020/12/23 07:45:40;;;;;;;11.32;6.28;;;8.50;99.90;;;;;;5076601;28;20465;-87
2020/12/23 07:48:10;;;;;;;14.10;7.15;;;8.50;99.90;;;;;;5077242;28;20465;-87
2020/12/23 07:50:46;;;;;;;2.05;1.77;;;8.50;99.90;;;;;;5090635;28;20358;-87
2020/12/23 07:53:30;;;;;;;4.00;1.98;;;8.70;99.90;;;;;;5076235;28;20366;-87
2020/12/23 07:56:00;;;;;;;8.57;4.70;;;8.90;99.90;;;;;;5077504;28;20385;-87
2020/12/23 07:58:28;;;;;;;3.78;3.47;;;9.10;99.90;;;;;;5076065;28;20373;-88
2020/12/23 08:00:55;;;;;;;1.80;1.70;;;9.20;99.90;;;;;;5076711;28;20385;-88
2020/12/23 08:03:29;;;;;;;3.33;1.77;;;9.40;99.90;;;;;;5075735;28;20371;-88
2020/12/23 08:06:10;;;;;;;2.33;1.50;;;9.50;99.90;;;;;;5075651;28;20052;-87
2020/12/23 08:08:39;;;;;;;2.72;2.05;;;9.60;99.90;;;;;;5075773;28;20040;-87
2020/12/23 08:11:15;;;;;;;2.03;1.83;;;9.80;99.90;;;;;;5076660;28;20384;-87
2020/12/23 08:13:43;;;;;;;1.48;1.30;;;9.80;99.90;;;;;;5075959;28;20373;-87
2020/12/23 08:16:12;;;;;;;1.77;1.10;;;9.90;99.90;;;;;;5075580;28;20484;-87
2020/12/23 08:18:40;;;;;;;1.77;1.58;;;9.90;99.90;;;;;;5075297;28;20395;-87
2020/12/23 08:21:16;;;;;;;5.82;3.22;;;10.00;99.90;;;;;;5076862;28;20448;-86
2020/12/23 08:23:46;;;;;;;6.82;4.75;;;10.00;99.90;;;;;;5076769;28;20394;-86
2020/12/23 08:26:14;;;;;;;3.40;3.08;;;10.10;99.90;;;;;;5075705;28;20536;-88
2020/12/23 08:28:45;;;;;;;4.70;2.55;;;10.10;99.90;;;;;;5074301;28;20411;-86
2020/12/23 08:31:19;;;;;;;0.80;0.70;;;10.10;99.90;;;;;;5075973;28;20361;-87
2020/12/23 08:33:49;;;;;;;0.30;0.30;;;10.10;99.90;;;;;;5075442;28;20384;-87
2020/12/23 08:36:16;;;;;;;1.38;1.05;;;10.20;99.90;;;;;;5075164;28;20097;-87
2020/12/23 08:38:43;;;;;;;1.27;0.47;;;10.30;99.90;;;;;;5076314;28;20499;-86
2020/12/23 08:41:14;;;;;;;1.05;0.88;;;10.40;99.90;;;;;;5074911;28;20382;-87
2020/12/23 08:43:50;;;;;;;1.67;1.58;;;10.40;99.90;;;;;;5075446;28;20389;-88
2020/12/23 08:46:27;;;;;;;2.45;1.30;;;10.50;99.90;;;;;;5075317;28;20453;-87
2020/12/23 08:48:55;;;;;;;1.60;1.50;;;10.50;99.90;;;;;;5075119;28;20373;-87
2020/12/23 08:51:25;;;;;;;3.70;2.58;;;10.60;99.90;;;;;;5074880;28;20392;-87
2020/12/23 08:53:52;;;;;;;5.95;3.85;;;10.60;99.90;;;;;;5074840;28;20396;-88
2020/12/23 08:56:26;;;;;;;3.50;3.10;;;10.60;99.90;;;;;;5076223;28;20040;-88
2020/12/23 08:59:06;;;;;;;1.95;0.80;;;10.60;99.90;;;;;;5074790;28;20370;-87
2020/12/23 09:01:35;;;;;;;0.35;0.20;;;10.60;99.90;;;;;;5074361;28;20461;-87
2020/12/23 09:04:09;;;;;;;5.85;2.30;;;10.70;99.90;;;;;;5074325;28;20538;-88
2020/12/23 09:06:44;;;;;;;2.35;1.70;;;10.70;99.90;;;;;;5074797;28;20338;-88
2020/12/23 09:09:21;;;;;;;2.47;0.50;;;10.80;99.90;;;;;;5074608;28;20396;-88
2020/12/23 09:11:50;;;;;;;0.82;0.82;;;10.80;99.90;;;;;;5074501;28;20431;-88
2020/12/23 09:14:30;;;;;;;4.13;0.60;;;10.80;99.90;;;;;;5074670;28;20374;-86
2020/12/23 09:17:09;;;;;;;1.73;0.50;;;10.90;99.90;;;;;;5074713;28;20389;-88
2020/12/23 09:19:49;;;;;;;0.35;0.35;;;10.90;99.90;;;;;;5074513;28;20575;-88
2020/12/23 09:22:24;;;;;;;1.17;0.30;;;10.90;99.90;;;;;;5074640;28;20397;-90
2020/12/23 09:24:52;;;;;;;0.30;0.30;;;10.90;99.90;;;;;;5078292;28;20377;-89
2020/12/23 09:27:22;;;;;;;0.55;0.43;;;10.90;99.90;;;;;;5074583;28;20396;-87
2020/12/23 09:29:52;;;;;;;0.68;0.68;;;11.00;99.90;;;;;;5074951;28;20413;-87
2020/12/23 09:32:19;;;;;;;1.90;0.60;;;11.00;99.90;;;;;;5074713;28;20397;-89
2020/12/23 09:35:15;;;;;;;1.48;0.40;;;11.00;99.90;;;;;;5075252;28;20519;-88
2020/12/23 09:37:45;;;;;;;0.60;0.30;;;11.10;99.90;;;;;;5074882;28;20396;-88
2020/12/23 09:40:15;;;;;;;0.30;0.30;;;11.00;99.90;;;;;;5073561;28;20385;-88
2020/12/23 09:42:42;;;;;;;0.40;0.40;;;11.10;99.90;;;;;;5074371;28;20385;-88
2020/12/23 09:45:11;;;;;;;0.30;0.30;;;11.10;99.90;;;;;;5073981;28;20370;-88
2020/12/23 09:47:42;;;;;;;0.40;0.38;;;11.10;99.90;;;;;;5074545;28;20382;-88
2020/12/23 09:50:10;;;;;;;0.30;0.30;;;11.10;99.90;;;;;;5074820;28;20452;-88
2020/12/23 09:52:38;;;;;;;1.20;0.55;;;11.10;99.90;;;;;;5075324;28;20515;-88
2020/12/23 09:55:07;;;;;;;0.82;0.40;;;11.10;99.90;;;;;;5073603;28;20495;-88
2020/12/23 09:57:35;;;;;;;0.30;0.25;;;11.20;99.90;;;;;;5073883;28;20362;-88
2020/12/23 10:00:07;;;;;;;1.27;0.50;;;11.10;99.90;;;;;;5074798;28;20392;-89
2020/12/23 10:02:34;;;;;;;0.32;0.30;;;11.20;99.90;;;;;;5074350;28;20411;-88
2020/12/23 10:05:02;;;;;;;0.17;0.13;;;11.20;99.90;;;;;;5088455;28;20048;-87
2020/12/23 10:07:29;;;;;;;0.50;0.50;;;11.10;99.90;;;;;;5076015;28;20388;-88
2020/12/23 10:09:56;;;;;;;5.63;0.60;;;11.20;99.90;;;;;;5074091;28;20041;-89
2020/12/23 10:12:23;;;;;;;0.50;0.30;;;11.10;99.90;;;;;;5073921;28;20041;-88
2020/12/23 10:14:50;;;;;;;0.77;0.77;;;11.20;99.90;;;;;;5073955;28;20392;-89
2020/12/23 10:17:18;;;;;;;1.08;0.50;;;11.20;99.90;;;;;;5074253;28;20381;-88
2020/12/23 10:19:45;;;;;;;4.47;0.70;;;11.20;99.90;;;;;;5074104;28;20129;-88
2020/12/23 10:22:13;;;;;;;0.60;0.60;;;11.10;99.90;;;;;;5074001;28;20044;-89
2020/12/23 10:24:40;;;;;;;0.35;0.35;;;11.10;99.90;;;;;;5074830;28;20389;-88
2020/12/23 10:27:08;;;;;;;0.88;0.70;;;11.10;99.90;;;;;;5073776;28;20040;-88
2020/12/23 10:29:35;;;;;;;2.28;0.55;;;11.20;99.90;;;;;;5073659;28;20383;-88
2020/12/23 10:32:02;;;;;;;0.30;0.30;;;11.20;99.90;;;;;;5075358;28;20361;-88
2020/12/23 10:34:29;;;;;;;3.15;2.95;;;11.20;99.90;;;;;;5073613;28;20381;-89
2020/12/23 10:36:56;;;;;;;1.00;1.00;;;11.20;99.90;;;;;;5074811;28;20392;-88
2020/12/23 10:39:24;;;;;;;0.25;0.25;;;11.20;99.90;;;;;;5080649;28;20403;-88
2020/12/23 10:41:54;;;;;;;1.27;0.30;;;11.30;99.90;;;;;;5081958;28;20045;-89
2020/12/23 10:44:22;;;;;;;0.50;0.50;;;11.30;99.90;;;;;;5073422;28;20420;-89
2020/12/23 10:46:57;;;;;;;0.70;0.70;;;11.30;99.90;;;;;;5074059;28;20392;-88
2020/12/23 10:49:24;;;;;;;7.32;6.82;;;11.30;99.90;;;;;;5073384;28;20378;-88
2020/12/23 10:51:53;;;;;;;6.47;6.05;;;11.40;99.90;;;;;;5076679;28;20525;-88
2020/12/23 10:54:20;;;;;;;1.50;1.40;;;11.30;99.90;;;;;;5077679;28;20487;-89
2020/12/23 10:56:47;;;;;;;0.47;0.47;;;11.40;99.90;;;;;;5077525;28;20392;-88
2020/12/23 10:59:14;;;;;;;6.03;5.60;;;11.30;99.90;;;;;;5077447;28;20477;-88
2020/12/23 11:01:42;;;;;;;3.47;3.28;;;11.30;99.90;;;;;;5077332;28;20380;-89
2020/12/23 11:04:09;;;;;;;3.63;3.42;;;11.30;99.90;;;;;;5077741;28;20413;-88
2020/12/23 11:06:36;;;;;;;3.13;2.83;;;11.40;99.90;;;;;;5077239;28;20510;-88
2020/12/23 11:09:04;;;;;;;4.80;4.40;;;11.40;99.90;;;;;;5078535;28;20393;-88
2020/12/23 11:11:31;;;;;;;3.67;3.38;;;11.50;99.90;;;;;;5077069;28;20362;-87
2020/12/23 11:13:58;;;;;;;2.58;2.40;;;11.50;99.90;;;;;;5078190;28;20052;-87
2020/12/23 11:16:27;;;;;;;4.63;2.13;;;11.60;99.90;;;;;;5077336;28;20392;-88
2020/12/23 11:18:54;;;;;;;2.28;2.17;;;11.60;99.90;;;;;;5077120;28;20460;-88
2020/12/23 11:21:21;;;;;;;2.90;2.70;;;11.60;99.90;;;;;;5078102;28;20366;-88
2020/12/23 11:23:49;;;;;;;3.30;3.00;;;11.60;99.90;;;;;;5077107;28;20465;-88
2020/12/23 11:26:20;;;;;;;2.80;2.60;;;11.60;99.90;;;;;;5077186;28;20416;-88
2020/12/23 11:28:53;;;;;;;4.97;4.68;;;11.70;99.90;;;;;;5076684;28;20407;-88
2020/12/23 11:31:20;;;;;;;9.60;4.85;;;11.70;99.90;;;;;;5077250;28;20346;-88
2020/12/23 11:33:47;;;;;;;4.90;4.50;;;11.80;99.90;;;;;;5076827;28;20397;-88
2020/12/23 11:36:15;;;;;;;5.68;4.47;;;11.80;99.90;;;;;;5078038;28;20508;-88
2020/12/23 11:38:42;;;;;;;2.88;2.50;;;11.80;99.90;;;;;;5077524;28;20384;-86
2020/12/23 11:41:09;;;;;;;4.85;3.30;;;11.70;99.90;;;;;;5076731;28;20397;-89
2020/12/23 11:43:37;;;;;;;2.55;2.40;;;11.70;99.90;;;;;;5076842;28;20369;-88
2020/12/23 11:46:05;;;;;;;0.60;0.60;;;11.60;99.90;;;;;;5076939;28;20400;-88
2020/12/23 11:48:32;;;;;;;8.25;4.00;;;11.60;99.90;;;;;;5076601;28;20396;-88
2020/12/23 11:51:00;;;;;;;2.50;2.35;;;11.60;99.90;;;;;;5076502;28;20492;-88
2020/12/23 11:53:27;;;;;;;5.25;2.33;;;11.60;99.90;;;;;;5076526;28;20052;-88
2020/12/23 11:55:53;;;;;;;8.88;5.03;;;11.70;99.90;;;;;;5091678;28;20055;-88
2020/12/23 11:58:21;;;;;;;14.20;8.57;;;11.70;99.90;;;;;;5077197;28;20370;-89
2020/12/23 12:00:51;;;;;;;4.05;3.65;;;11.60;99.90;;;;;;5077257;28;20392;-88
2020/12/23 12:03:18;;;;;;;9.13;5.53;;;11.60;99.90;;;;;;5076126;28;20389;-88
2020/12/23 12:05:46;;;;;;;5.80;2.80;;;11.70;99.90;;;;;;5076705;28;20383;-88
2020/12/23 12:08:13;;;;;;;2.70;2.42;;;11.70;99.90;;;;;;5076022;28;20408;-88
2020/12/23 12:10:57;;;;;;;1.90;1.80;;;11.80;99.90;;;;;;5076349;28;20040;-87
2020/12/23 12:13:24;;;;;;;1.80;1.70;;;11.90;99.90;;;;;;5077862;28;20388;-88
2020/12/23 12:15:52;;;;;;;2.20;2.10;;;12.00;99.90;;;;;;5075813;28;20480;-88
2020/12/23 12:18:20;;;;;;;2.65;1.80;;;12.10;99.90;;;;;;5075973;28;20408;-88
2020/12/23 12:20:47;;;;;;;1.17;0.55;;;12.00;99.90;;;;;;5091629;28;20428;-89
2020/12/23 12:23:14;;;;;;;0.30;0.30;;;12.00;99.90;;;;;;5077489;28;20400;-87
2020/12/23 12:25:41;;;;;;;0.40;0.40;;;12.10;99.90;;;;;;5075884;28;20420;-88
2020/12/23 12:28:08;;;;;;;1.98;0.40;;;12.10;99.90;;;;;;5075707;28;20399;-89
2020/12/23 12:30:38;;;;;;;0.52;0.10;;;12.20;99.90;;;;;;5076602;28;20392;-88
2020/12/23 12:33:05;;;;;;;0.50;0.50;;;12.20;99.90;;;;;;5075763;28;20488;-88
2020/12/23 12:35:33;;;;;;;1.00;1.00;;;12.30;99.90;;;;;;5075683;28;20094;-88
2020/12/23 12:38:00;;;;;;;2.70;2.10;;;12.40;99.90;;;;;;5076669;28;20484;-88
2020/12/23 12:40:27;;;;;;;2.30;0.93;;;12.40;99.90;;;;;;5075562;28;20393;-87
2020/12/23 12:42:55;;;;;;;1.80;0.70;;;12.50;99.90;;;;;;5075783;28;20422;-88
2020/12/23 12:45:22;;;;;;;4.05;3.63;;;12.50;99.90;;;;;;5075640;28;20389;-88
2020/12/23 12:47:49;;;;;;;3.25;3.03;;;12.50;99.90;;;;;;5077008;28;20369;-88
2020/12/23 12:50:16;;;;;;;0.90;0.90;;;12.40;99.90;;;;;;5074791;28;20396;-88
2020/12/23 12:52:43;;;;;;;1.30;1.20;;;12.50;99.90;;;;;;5076439;28;20453;-88
2020/12/23 12:55:10;;;;;;;2.45;1.70;;;12.50;99.90;;;;;;5076270;28;20369;-88
2020/12/23 12:57:37;;;;;;;1.63;1.38;;;12.40;99.90;;;;;;5075283;28;20469;-88
2020/12/23 13:00:05;;;;;;;1.90;1.80;;;12.40;99.90;;;;;;5075094;28;20460;-88